createdAt,value
2022-12-15T00:02:05.921Z,1
2022-12-15T00:12:05.763Z,1
2022-12-15T00:22:05.899Z,1
2022-12-15T00:32:05.765Z,1
2022-12-15T00:42:05.878Z,1
2022-12-15T00:52:05.814Z,1
2022-12-15T01:02:06.008Z,1
2022-12-15T01:12:05.775Z,3
2022-12-15T01:22:05.927Z,1
2022-12-15T01:32:05.753Z,1
2022-12-15T01:42:05.962Z,1
2022-12-15T01:52:05.964Z,1
2022-12-15T02:02:06.030Z,1
2022-12-15T02:12:05.852Z,3
2022-12-15T02:22:05.977Z,1
2022-12-15T02:32:05.889Z,1
2022-12-15T02:42:05.958Z,1
2022-12-15T02:52:05.830Z,1
2022-12-15T03:02:06.292Z,1
2022-12-15T03:12:05.836Z,1
2022-12-15T03:22:05.980Z,3
2022-12-15T03:32:06.135Z,1
2022-12-15T03:42:05.956Z,1
2022-12-15T03:52:06.045Z,1
2022-12-15T04:02:06.043Z,1
2022-12-15T04:12:06.034Z,3
2022-12-15T04:22:05.953Z,1
2022-12-15T04:32:06.060Z,1
2022-12-15T04:42:05.969Z,1
2022-12-15T04:52:06.042Z,1
2022-12-15T05:02:06.137Z,3
2022-12-15T05:12:06.065Z,1
2022-12-15T05:22:05.969Z,1
2022-12-15T05:32:06.061Z,3
2022-12-15T05:42:06.184Z,3
2022-12-15T05:52:06.040Z,1
2022-12-15T06:02:06.199Z,1
2022-12-15T06:12:06.049Z,3
2022-12-15T06:22:06.169Z,2
2022-12-15T06:32:06.042Z,1
2022-12-15T06:42:06.199Z,2
2022-12-15T06:52:06.032Z,3
2022-12-15T07:02:06.335Z,3
2022-12-15T07:12:06.225Z,1
2022-12-15T07:22:06.151Z,1
2022-12-15T07:32:06.268Z,5
2022-12-15T07:42:06.178Z,6
2022-12-15T07:52:06.210Z,10
2022-12-15T08:02:06.346Z,28
2022-12-15T08:12:06.197Z,50
2022-12-15T08:22:06.319Z,65
2022-12-15T08:32:06.312Z,75
2022-12-15T08:42:06.322Z,81
2022-12-15T08:52:06.192Z,84
2022-12-15T09:02:06.373Z,86
2022-12-15T09:12:06.185Z,88
2022-12-15T09:22:06.308Z,89
2022-12-15T09:32:10.616Z,90
2022-12-15T09:42:06.303Z,90
2022-12-15T09:52:10.877Z,91
2022-12-15T10:02:06.382Z,92
2022-12-15T10:12:06.210Z,92
2022-12-15T10:22:06.308Z,92
2022-12-15T10:32:06.357Z,92
2022-12-15T10:42:06.283Z,92
2022-12-15T10:52:06.351Z,92
2022-12-15T11:02:06.524Z,92
2022-12-15T11:12:11.868Z,92
2022-12-15T11:22:06.317Z,92
2022-12-15T11:32:07.403Z,93
2022-12-15T11:42:06.538Z,93
2022-12-15T11:52:06.381Z,93
2022-12-15T12:02:06.588Z,93
2022-12-15T12:12:06.375Z,93
2022-12-15T12:22:06.518Z,93
2022-12-15T12:32:06.387Z,93
2022-12-15T12:42:06.516Z,93
2022-12-15T12:52:06.384Z,93
2022-12-15T13:02:07.184Z,93
2022-12-15T13:12:21.109Z,93
2022-12-15T13:22:06.523Z,93
2022-12-15T13:32:06.879Z,93
2022-12-15T13:52:06.611Z,92
2022-12-15T14:02:06.704Z,92
2022-12-15T14:12:06.478Z,91
2022-12-15T14:22:06.607Z,91
2022-12-15T14:32:06.522Z,91
2022-12-15T14:42:06.583Z,90
2022-12-15T14:52:06.659Z,90
2022-12-15T15:02:06.748Z,88
2022-12-15T15:12:06.623Z,87
2022-12-15T15:22:06.567Z,84
2022-12-15T15:32:06.652Z,82
2022-12-15T15:42:06.745Z,75
2022-12-15T15:52:06.637Z,67
2022-12-15T16:02:06.965Z,49
2022-12-15T16:12:06.625Z,26
2022-12-15T16:22:06.746Z,10
2022-12-15T16:32:06.612Z,3
2022-12-15T16:42:06.732Z,1
2022-12-15T16:52:06.609Z,1
2022-12-15T17:02:06.952Z,1
2022-12-15T17:12:06.824Z,1
2022-12-15T17:22:07.207Z,1
2022-12-15T17:32:06.818Z,1
2022-12-15T17:42:06.855Z,1
2022-12-15T17:52:06.814Z,1
2022-12-15T18:02:06.801Z,1
2022-12-15T18:12:06.810Z,1
2022-12-15T18:22:06.722Z,1
2022-12-15T18:32:06.799Z,1
2022-12-15T18:42:06.937Z,3
2022-12-15T18:52:06.792Z,3
2022-12-15T19:02:07.029Z,3
2022-12-15T19:12:06.797Z,1
2022-12-15T19:22:06.912Z,1
2022-12-15T19:32:07.020Z,1
2022-12-15T19:42:11.658Z,1
2022-12-15T19:52:06.800Z,1
2022-12-15T20:02:07.101Z,1
2022-12-15T20:12:06.978Z,1
2022-12-15T20:22:06.910Z,1
2022-12-15T20:32:07.080Z,1
2022-12-15T20:42:06.925Z,1
2022-12-15T20:52:06.993Z,1
2022-12-15T21:02:07.012Z,1
2022-12-15T21:12:09.309Z,1
2022-12-15T21:22:06.904Z,1
2022-12-15T21:32:06.999Z,1
2022-12-15T21:42:07.102Z,1
2022-12-15T21:52:06.963Z,1
2022-12-15T22:02:07.149Z,1
2022-12-15T22:12:06.985Z,1
2022-12-15T22:22:07.139Z,1
2022-12-15T22:32:06.956Z,1
2022-12-15T22:42:07.104Z,1
2022-12-15T22:52:06.968Z,2
2022-12-15T23:02:07.211Z,1
2022-12-15T23:12:07.227Z,1
2022-12-15T23:22:07.515Z,1
2022-12-15T23:32:07.145Z,1
2022-12-15T23:42:07.115Z,1
2022-12-15T23:52:07.162Z,1
